sensor_id;sensor_type;location;lat;lon;timestamp;temperature;humidity
7447;DHT22;3765;47.962;7.952;2023-10-13T00:01:04;18.20;51.70
7447;DHT22;3765;47.962;7.952;2023-10-13T00:03:34;18.10;51.90
7447;DHT22;3765;47.962;7.952;2023-10-13T00:06:06;18.00;52.20
7447;DHT22;3765;47.962;7.952;2023-10-13T00:08:35;17.90;52.50
7447;DHT22;3765;47.962;7.952;2023-10-13T00:11:05;17.80;52.80
7447;DHT22;3765;47.962;7.952;2023-10-13T00:13:36;17.80;53.00
7447;DHT22;3765;47.962;7.952;2023-10-13T00:16:10;17.80;53.20
7447;DHT22;3765;47.962;7.952;2023-10-13T00:18:44;17.60;53.40
7447;DHT22;3765;47.962;7.952;2023-10-13T00:21:14;17.60;53.60
7447;DHT22;3765;47.962;7.952;2023-10-13T00:23:47;17.50;53.90
7447;DHT22;3765;47.962;7.952;2023-10-13T00:26:22;17.40;53.90
7447;DHT22;3765;47.962;7.952;2023-10-13T00:28:54;17.30;54.30
7447;DHT22;3765;47.962;7.952;2023-10-13T00:31:36;17.30;54.40
7447;DHT22;3765;47.962;7.952;2023-10-13T00:34:15;17.30;54.50
7447;DHT22;3765;47.962;7.952;2023-10-13T00:36:48;17.30;54.40
7447;DHT22;3765;47.962;7.952;2023-10-13T00:39:37;17.20;54.60
7447;DHT22;3765;47.962;7.952;2023-10-13T00:42:11;17.20;54.70
7447;DHT22;3765;47.962;7.952;2023-10-13T00:44:47;17.10;55.10
7447;DHT22;3765;47.962;7.952;2023-10-13T00:47:18;17.00;55.20
7447;DHT22;3765;47.962;7.952;2023-10-13T00:50:00;17.00;55.40
7447;DHT22;3765;47.962;7.952;2023-10-13T00:52:30;17.00;55.50
7447;DHT22;3765;47.962;7.952;2023-10-13T00:55:02;16.80;55.60
7447;DHT22;3765;47.962;7.952;2023-10-13T00:57:31;16.80;55.80
7447;DHT22;3765;47.962;7.952;2023-10-13T01:00:01;16.70;56.00
7447;DHT22;3765;47.962;7.952;2023-10-13T01:02:48;16.60;56.10
7447;DHT22;3765;47.962;7.952;2023-10-13T01:05:23;16.70;56.10
7447;DHT22;3765;47.962;7.952;2023-10-13T01:07:53;16.50;56.30
7447;DHT22;3765;47.962;7.952;2023-10-13T01:10:22;16.60;56.40
7447;DHT22;3765;47.962;7.952;2023-10-13T01:12:55;16.60;56.30
7447;DHT22;3765;47.962;7.952;2023-10-13T01:15:23;16.60;56.30
7447;DHT22;3765;47.962;7.952;2023-10-13T01:18:06;16.70;56.20
7447;DHT22;3765;47.962;7.952;2023-10-13T01:20:38;16.60;56.30
7447;DHT22;3765;47.962;7.952;2023-10-13T01:23:13;16.60;56.30
7447;DHT22;3765;47.962;7.952;2023-10-13T01:25:46;16.50;56.50
7447;DHT22;3765;47.962;7.952;2023-10-13T01:28:14;16.40;56.50
7447;DHT22;3765;47.962;7.952;2023-10-13T01:30:43;16.60;56.70
7447;DHT22;3765;47.962;7.952;2023-10-13T01:33:17;16.40;56.70
7447;DHT22;3765;47.962;7.952;2023-10-13T01:35:53;16.40;56.80
7447;DHT22;3765;47.962;7.952;2023-10-13T01:38:25;16.40;56.90
7447;DHT22;3765;47.962;7.952;2023-10-13T01:40:55;16.30;57.00
7447;DHT22;3765;47.962;7.952;2023-10-13T01:43:24;16.30;57.10
7447;DHT22;3765;47.962;7.952;2023-10-13T01:45:52;16.30;57.20
7447;DHT22;3765;47.962;7.952;2023-10-13T01:48:20;16.30;57.10
7447;DHT22;3765;47.962;7.952;2023-10-13T01:50:49;16.20;57.30
7447;DHT22;3765;47.962;7.952;2023-10-13T01:53:24;16.20;57.40
7447;DHT22;3765;47.962;7.952;2023-10-13T01:55:55;16.00;57.60
7447;DHT22;3765;47.962;7.952;2023-10-13T01:58:24;16.00;57.90
7447;DHT22;3765;47.962;7.952;2023-10-13T02:00:56;16.00;58.00
7447;DHT22;3765;47.962;7.952;2023-10-13T02:03:23;16.10;57.90
7447;DHT22;3765;47.962;7.952;2023-10-13T02:05:54;16.10;57.90
7447;DHT22;3765;47.962;7.952;2023-10-13T02:08:26;16.10;57.80
7447;DHT22;3765;47.962;7.952;2023-10-13T02:10:55;16.00;58.00
7447;DHT22;3765;47.962;7.952;2023-10-13T02:13:24;15.90;58.00
7447;DHT22;3765;47.962;7.952;2023-10-13T02:15:54;16.00;58.10
7447;DHT22;3765;47.962;7.952;2023-10-13T02:18:24;16.00;58.20
7447;DHT22;3765;47.962;7.952;2023-10-13T02:21:03;15.90;58.30
7447;DHT22;3765;47.962;7.952;2023-10-13T02:23:33;15.90;58.30
7447;DHT22;3765;47.962;7.952;2023-10-13T02:26:05;15.90;58.40
7447;DHT22;3765;47.962;7.952;2023-10-13T02:28:38;15.90;58.50
7447;DHT22;3765;47.962;7.952;2023-10-13T02:31:06;15.80;58.70
7447;DHT22;3765;47.962;7.952;2023-10-13T02:33:34;15.70;58.90
7447;DHT22;3765;47.962;7.952;2023-10-13T02:36:03;15.60;59.00
7447;DHT22;3765;47.962;7.952;2023-10-13T02:38:34;15.70;59.10
7447;DHT22;3765;47.962;7.952;2023-10-13T02:41:11;15.60;59.10
7447;DHT22;3765;47.962;7.952;2023-10-13T02:43:45;15.50;59.40
7447;DHT22;3765;47.962;7.952;2023-10-13T02:46:14;15.50;59.50
7447;DHT22;3765;47.962;7.952;2023-10-13T02:48:44;15.40;59.70
7447;DHT22;3765;47.962;7.952;2023-10-13T02:51:13;15.40;59.80
7447;DHT22;3765;47.962;7.952;2023-10-13T02:53:45;15.30;59.90
7447;DHT22;3765;47.962;7.952;2023-10-13T02:56:17;15.20;60.20
7447;DHT22;3765;47.962;7.952;2023-10-13T02:58:48;15.20;60.50
7447;DHT22;3765;47.962;7.952;2023-10-13T03:01:20;15.10;60.60
7447;DHT22;3765;47.962;7.952;2023-10-13T03:03:54;14.90;60.80
7447;DHT22;3765;47.962;7.952;2023-10-13T03:06:23;14.90;61.10
7447;DHT22;3765;47.962;7.952;2023-10-13T03:09:02;14.80;61.20
7447;DHT22;3765;47.962;7.952;2023-10-13T03:11:41;14.80;61.30
7447;DHT22;3765;47.962;7.952;2023-10-13T03:14:15;14.80;61.50
7447;DHT22;3765;47.962;7.952;2023-10-13T03:16:53;14.70;61.50
7447;DHT22;3765;47.962;7.952;2023-10-13T03:19:22;14.70;61.80
7447;DHT22;3765;47.962;7.952;2023-10-13T03:21:50;14.70;61.90
7447;DHT22;3765;47.962;7.952;2023-10-13T03:24:25;14.70;62.00
7447;DHT22;3765;47.962;7.952;2023-10-13T03:27:00;14.60;62.20
7447;DHT22;3765;47.962;7.952;2023-10-13T03:29:36;14.60;62.20
7447;DHT22;3765;47.962;7.952;2023-10-13T03:32:05;14.50;62.50
7447;DHT22;3765;47.962;7.952;2023-10-13T03:34:39;14.40;62.60
7447;DHT22;3765;47.962;7.952;2023-10-13T03:37:17;14.40;62.80
7447;DHT22;3765;47.962;7.952;2023-10-13T03:39:55;14.40;62.90
7447;DHT22;3765;47.962;7.952;2023-10-13T03:42:26;14.30;63.10
7447;DHT22;3765;47.962;7.952;2023-10-13T03:44:54;14.30;63.30
7447;DHT22;3765;47.962;7.952;2023-10-13T03:47:22;14.30;63.30
7447;DHT22;3765;47.962;7.952;2023-10-13T03:49:54;14.30;63.40
7447;DHT22;3765;47.962;7.952;2023-10-13T03:52:42;14.30;63.60
7447;DHT22;3765;47.962;7.952;2023-10-13T03:55:13;14.20;63.60
7447;DHT22;3765;47.962;7.952;2023-10-13T03:57:45;14.10;63.80
7447;DHT22;3765;47.962;7.952;2023-10-13T04:00:17;14.10;64.00
7447;DHT22;3765;47.962;7.952;2023-10-13T04:02:51;14.00;64.00
7447;DHT22;3765;47.962;7.952;2023-10-13T04:05:36;14.00;64.20
7447;DHT22;3765;47.962;7.952;2023-10-13T04:08:11;13.90;64.20
7447;DHT22;3765;47.962;7.952;2023-10-13T04:10:58;13.90;64.30
7447;DHT22;3765;47.962;7.952;2023-10-13T04:13:44;13.90;64.30
7447;DHT22;3765;47.962;7.952;2023-10-13T04:16:31;13.80;64.30
7447;DHT22;3765;47.962;7.952;2023-10-13T04:19:03;13.80;64.60
7447;DHT22;3765;47.962;7.952;2023-10-13T04:21:50;13.80;64.60
7447;DHT22;3765;47.962;7.952;2023-10-13T04:24:41;13.80;64.70
7447;DHT22;3765;47.962;7.952;2023-10-13T04:27:31;13.70;64.90
7447;DHT22;3765;47.962;7.952;2023-10-13T04:30:20;13.70;64.90
7447;DHT22;3765;47.962;7.952;2023-10-13T04:32:54;13.70;65.10
7447;DHT22;3765;47.962;7.952;2023-10-13T04:35:44;13.70;65.10
7447;DHT22;3765;47.962;7.952;2023-10-13T04:38:25;13.70;65.10
7447;DHT22;3765;47.962;7.952;2023-10-13T04:41:00;13.60;65.20
7447;DHT22;3765;47.962;7.952;2023-10-13T04:43:29;13.60;65.30
7447;DHT22;3765;47.962;7.952;2023-10-13T04:46:21;13.60;65.30
7447;DHT22;3765;47.962;7.952;2023-10-13T04:49:03;13.60;65.40
7447;DHT22;3765;47.962;7.952;2023-10-13T04:51:37;13.50;65.40
7447;DHT22;3765;47.962;7.952;2023-10-13T04:54:25;13.40;65.50
7447;DHT22;3765;47.962;7.952;2023-10-13T04:57:00;13.40;65.70
7447;DHT22;3765;47.962;7.952;2023-10-13T04:59:44;13.30;65.70
7447;DHT22;3765;47.962;7.952;2023-10-13T05:02:26;13.40;65.90
7447;DHT22;3765;47.962;7.952;2023-10-13T05:05:12;13.30;65.90
7447;DHT22;3765;47.962;7.952;2023-10-13T05:07:58;13.30;66.00
7447;DHT22;3765;47.962;7.952;2023-10-13T05:10:43;13.30;66.10
7447;DHT22;3765;47.962;7.952;2023-10-13T05:13:29;13.30;66.20
7447;DHT22;3765;47.962;7.952;2023-10-13T05:16:21;13.20;66.30
7447;DHT22;3765;47.962;7.952;2023-10-13T05:19:07;13.30;66.30
7447;DHT22;3765;47.962;7.952;2023-10-13T05:21:52;13.20;66.40
7447;DHT22;3765;47.962;7.952;2023-10-13T05:24:38;13.10;66.40
7447;DHT22;3765;47.962;7.952;2023-10-13T05:27:20;13.00;66.50
7447;DHT22;3765;47.962;7.952;2023-10-13T05:30:07;13.00;66.70
7447;DHT22;3765;47.962;7.952;2023-10-13T05:32:54;12.90;66.80
7447;DHT22;3765;47.962;7.952;2023-10-13T05:35:40;12.90;66.80
7447;DHT22;3765;47.962;7.952;2023-10-13T05:38:29;12.90;66.90
7447;DHT22;3765;47.962;7.952;2023-10-13T05:41:14;12.90;66.90
7447;DHT22;3765;47.962;7.952;2023-10-13T05:44:00;12.90;66.90
7447;DHT22;3765;47.962;7.952;2023-10-13T05:46:45;12.90;67.00
7447;DHT22;3765;47.962;7.952;2023-10-13T05:49:29;12.90;67.10
7447;DHT22;3765;47.962;7.952;2023-10-13T05:52:17;12.90;67.00
7447;DHT22;3765;47.962;7.952;2023-10-13T05:55:03;12.90;67.10
7447;DHT22;3765;47.962;7.952;2023-10-13T05:57:49;12.80;67.10
7447;DHT22;3765;47.962;7.952;2023-10-13T06:00:39;12.80;67.30
7447;DHT22;3765;47.962;7.952;2023-10-13T06:03:25;12.90;67.20
7447;DHT22;3765;47.962;7.952;2023-10-13T06:06:12;12.80;67.20
7447;DHT22;3765;47.962;7.952;2023-10-13T06:08:57;12.90;67.20
7447;DHT22;3765;47.962;7.952;2023-10-13T06:11:42;13.00;67.10
7447;DHT22;3765;47.962;7.952;2023-10-13T06:14:28;13.00;67.10
7447;DHT22;3765;47.962;7.952;2023-10-13T06:17:13;13.00;67.20
7447;DHT22;3765;47.962;7.952;2023-10-13T06:19:59;13.00;67.20
7447;DHT22;3765;47.962;7.952;2023-10-13T06:22:48;13.00;67.10
7447;DHT22;3765;47.962;7.952;2023-10-13T06:25:34;13.20;67.30
7447;DHT22;3765;47.962;7.952;2023-10-13T06:28:20;13.20;67.00
7447;DHT22;3765;47.962;7.952;2023-10-13T06:31:06;13.30;66.80
7447;DHT22;3765;47.962;7.952;2023-10-13T06:33:35;13.30;66.70
7447;DHT22;3765;47.962;7.952;2023-10-13T06:36:11;13.40;66.70
7447;DHT22;3765;47.962;7.952;2023-10-13T06:38:40;13.40;66.70
7447;DHT22;3765;47.962;7.952;2023-10-13T06:41:09;13.50;66.50
7447;DHT22;3765;47.962;7.952;2023-10-13T06:43:47;13.50;66.40
7447;DHT22;3765;47.962;7.952;2023-10-13T06:46:27;13.60;66.50
7447;DHT22;3765;47.962;7.952;2023-10-13T06:48:56;13.70;66.40
7447;DHT22;3765;47.962;7.952;2023-10-13T06:51:27;13.80;66.40
7447;DHT22;3765;47.962;7.952;2023-10-13T06:54:07;13.90;66.20
7447;DHT22;3765;47.962;7.952;2023-10-13T06:56:46;14.00;66.00
7447;DHT22;3765;47.962;7.952;2023-10-13T06:59:18;14.10;66.00
7447;DHT22;3765;47.962;7.952;2023-10-13T07:01:47;14.20;65.80
7447;DHT22;3765;47.962;7.952;2023-10-13T07:04:15;14.30;65.70
7447;DHT22;3765;47.962;7.952;2023-10-13T07:06:44;14.40;65.60
7447;DHT22;3765;47.962;7.952;2023-10-13T07:09:17;14.50;65.30
7447;DHT22;3765;47.962;7.952;2023-10-13T07:12:07;14.70;65.00
7447;DHT22;3765;47.962;7.952;2023-10-13T07:14:47;14.90;64.80
7447;DHT22;3765;47.962;7.952;2023-10-13T07:17:27;15.00;64.60
7447;DHT22;3765;47.962;7.952;2023-10-13T07:20:00;15.20;64.50
7447;DHT22;3765;47.962;7.952;2023-10-13T07:22:42;15.20;64.20
7447;DHT22;3765;47.962;7.952;2023-10-13T07:25:24;15.40;64.20
7447;DHT22;3765;47.962;7.952;2023-10-13T07:27:53;15.60;63.80
7447;DHT22;3765;47.962;7.952;2023-10-13T07:30:24;15.80;63.40
7447;DHT22;3765;47.962;7.952;2023-10-13T07:32:55;15.90;63.10
7447;DHT22;3765;47.962;7.952;2023-10-13T07:35:27;16.00;63.00
7447;DHT22;3765;47.962;7.952;2023-10-13T07:37:58;16.20;62.80
7447;DHT22;3765;47.962;7.952;2023-10-13T07:40:29;16.30;62.50
7447;DHT22;3765;47.962;7.952;2023-10-13T07:43:07;16.50;62.00
7447;DHT22;3765;47.962;7.952;2023-10-13T07:45:40;16.70;61.70
7447;DHT22;3765;47.962;7.952;2023-10-13T07:48:10;16.80;61.20
7447;DHT22;3765;47.962;7.952;2023-10-13T07:50:47;17.00;61.10
7447;DHT22;3765;47.962;7.952;2023-10-13T07:53:16;17.10;61.10
7447;DHT22;3765;47.962;7.952;2023-10-13T07:55:51;17.30;61.10
7447;DHT22;3765;47.962;7.952;2023-10-13T07:58:23;17.40;60.80
7447;DHT22;3765;47.962;7.952;2023-10-13T08:00:53;17.50;60.40
7447;DHT22;3765;47.962;7.952;2023-10-13T08:03:35;17.70;60.10
7447;DHT22;3765;47.962;7.952;2023-10-13T08:06:11;17.80;59.90
7447;DHT22;3765;47.962;7.952;2023-10-13T08:08:53;18.00;60.10
7447;DHT22;3765;47.962;7.952;2023-10-13T08:11:26;18.20;59.90
7447;DHT22;3765;47.962;7.952;2023-10-13T08:14:00;18.40;59.90
7447;DHT22;3765;47.962;7.952;2023-10-13T08:16:57;18.70;59.30
7447;DHT22;3765;47.962;7.952;2023-10-13T08:19:28;18.90;59.00
7447;DHT22;3765;47.962;7.952;2023-10-13T08:22:07;19.20;58.60
7447;DHT22;3765;47.962;7.952;2023-10-13T08:25:03;19.50;58.00
7447;DHT22;3765;47.962;7.952;2023-10-13T08:27:47;19.80;57.50
7447;DHT22;3765;47.962;7.952;2023-10-13T08:41:10;20.10;56.90
7447;DHT22;3765;47.962;7.952;2023-10-13T08:44:03;20.50;55.70
7447;DHT22;3765;47.962;7.952;2023-10-13T08:46:31;20.50;55.40
7447;DHT22;3765;47.962;7.952;2023-10-13T08:49:19;20.60;55.30
7447;DHT22;3765;47.962;7.952;2023-10-13T08:51:52;20.60;54.90
7447;DHT22;3765;47.962;7.952;2023-10-13T08:54:35;20.80;54.70
7447;DHT22;3765;47.962;7.952;2023-10-13T08:57:14;21.00;54.50
7447;DHT22;3765;47.962;7.952;2023-10-13T09:00:00;21.30;54.20
7447;DHT22;3765;47.962;7.952;2023-10-13T09:02:42;21.50;53.80
7447;DHT22;3765;47.962;7.952;2023-10-13T09:05:55;21.80;53.50
7447;DHT22;3765;47.962;7.952;2023-10-13T09:08:29;22.20;52.70
7447;DHT22;3765;47.962;7.952;2023-10-13T09:11:03;22.30;52.30
7447;DHT22;3765;47.962;7.952;2023-10-13T09:13:40;22.60;52.10
7447;DHT22;3765;47.962;7.952;2023-10-13T09:16:12;23.00;51.60
7447;DHT22;3765;47.962;7.952;2023-10-13T09:19:09;23.30;51.30
7447;DHT22;3765;47.962;7.952;2023-10-13T09:21:39;23.60;50.80
7447;DHT22;3765;47.962;7.952;2023-10-13T09:24:15;23.70;50.40
7447;DHT22;3765;47.962;7.952;2023-10-13T09:26:45;23.90;50.00
7447;DHT22;3765;47.962;7.952;2023-10-13T09:29:18;24.00;49.90
7447;DHT22;3765;47.962;7.952;2023-10-13T09:31:47;24.10;49.20
7447;DHT22;3765;47.962;7.952;2023-10-13T09:34:22;24.10;47.30
7447;DHT22;3765;47.962;7.952;2023-10-13T09:36:51;24.20;46.80
7447;DHT22;3765;47.962;7.952;2023-10-13T09:39:25;24.40;46.60
7447;DHT22;3765;47.962;7.952;2023-10-13T09:41:57;24.40;45.20
7447;DHT22;3765;47.962;7.952;2023-10-13T09:44:28;24.50;45.50
7447;DHT22;3765;47.962;7.952;2023-10-13T09:47:01;24.70;45.50
7447;DHT22;3765;47.962;7.952;2023-10-13T09:49:41;24.80;45.60
7447;DHT22;3765;47.962;7.952;2023-10-13T09:52:17;24.80;45.70
7447;DHT22;3765;47.962;7.952;2023-10-13T09:55:19;24.80;45.70
7447;DHT22;3765;47.962;7.952;2023-10-13T09:58:01;24.80;45.60
7447;DHT22;3765;47.962;7.952;2023-10-13T10:00:43;24.90;44.50
7447;DHT22;3765;47.962;7.952;2023-10-13T10:03:23;24.80;44.00
7447;DHT22;3765;47.962;7.952;2023-10-13T10:05:58;24.90;43.70
7447;DHT22;3765;47.962;7.952;2023-10-13T10:08:33;25.00;43.40
7447;DHT22;3765;47.962;7.952;2023-10-13T10:11:19;24.90;43.00
7447;DHT22;3765;47.962;7.952;2023-10-13T10:13:55;24.90;43.00
7447;DHT22;3765;47.962;7.952;2023-10-13T10:16:38;24.90;42.90
7447;DHT22;3765;47.962;7.952;2023-10-13T10:19:08;25.00;42.60
7447;DHT22;3765;47.962;7.952;2023-10-13T10:21:37;25.00;42.30
7447;DHT22;3765;47.962;7.952;2023-10-13T10:24:15;25.10;42.40
7447;DHT22;3765;47.962;7.952;2023-10-13T10:26:51;25.30;41.60
7447;DHT22;3765;47.962;7.952;2023-10-13T10:29:19;25.40;40.00
7447;DHT22;3765;47.962;7.952;2023-10-13T10:31:49;25.50;39.90
7447;DHT22;3765;47.962;7.952;2023-10-13T10:34:18;25.70;39.90
7447;DHT22;3765;47.962;7.952;2023-10-13T10:36:53;25.80;39.80
7447;DHT22;3765;47.962;7.952;2023-10-13T10:39:33;25.80;39.00
7447;DHT22;3765;47.962;7.952;2023-10-13T10:42:10;26.00;38.50
7447;DHT22;3765;47.962;7.952;2023-10-13T10:44:42;26.10;38.20
7447;DHT22;3765;47.962;7.952;2023-10-13T10:47:13;26.20;37.80
7447;DHT22;3765;47.962;7.952;2023-10-13T10:49:47;26.40;37.00
7447;DHT22;3765;47.962;7.952;2023-10-13T10:52:17;26.50;37.40
7447;DHT22;3765;47.962;7.952;2023-10-13T10:54:58;26.50;36.50
7447;DHT22;3765;47.962;7.952;2023-10-13T10:57:27;26.60;36.80
7447;DHT22;3765;47.962;7.952;2023-10-13T11:00:05;26.70;36.50
7447;DHT22;3765;47.962;7.952;2023-10-13T11:02:43;26.80;36.50
7447;DHT22;3765;47.962;7.952;2023-10-13T11:05:12;26.90;36.00
7447;DHT22;3765;47.962;7.952;2023-10-13T11:07:46;27.00;35.20
7447;DHT22;3765;47.962;7.952;2023-10-13T11:10:18;27.00;35.20
7447;DHT22;3765;47.962;7.952;2023-10-13T11:12:55;27.20;35.40
7447;DHT22;3765;47.962;7.952;2023-10-13T11:15:23;27.30;34.90
7447;DHT22;3765;47.962;7.952;2023-10-13T11:18:02;27.30;34.80
7447;DHT22;3765;47.962;7.952;2023-10-13T11:20:33;27.40;34.20
7447;DHT22;3765;47.962;7.952;2023-10-13T11:23:11;27.50;34.20
7447;DHT22;3765;47.962;7.952;2023-10-13T11:25:39;27.60;34.00
7447;DHT22;3765;47.962;7.952;2023-10-13T11:28:11;27.50;33.70
7447;DHT22;3765;47.962;7.952;2023-10-13T11:30:46;27.50;33.60
7447;DHT22;3765;47.962;7.952;2023-10-13T11:33:19;27.70;33.80
7447;DHT22;3765;47.962;7.952;2023-10-13T11:35:50;27.70;33.40
7447;DHT22;3765;47.962;7.952;2023-10-13T11:38:26;27.80;33.20
7447;DHT22;3765;47.962;7.952;2023-10-13T11:40:57;27.90;32.60
7447;DHT22;3765;47.962;7.952;2023-10-13T11:43:40;27.90;32.10
7447;DHT22;3765;47.962;7.952;2023-10-13T11:46:33;27.90;32.20
7447;DHT22;3765;47.962;7.952;2023-10-13T11:49:20;28.00;31.50
7447;DHT22;3765;47.962;7.952;2023-10-13T11:51:59;28.00;31.50
7447;DHT22;3765;47.962;7.952;2023-10-13T11:54:43;28.20;30.30
7447;DHT22;3765;47.962;7.952;2023-10-13T11:57:14;28.30;30.70
7447;DHT22;3765;47.962;7.952;2023-10-13T11:59:47;28.30;30.70
7447;DHT22;3765;47.962;7.952;2023-10-13T12:02:23;28.40;30.00
7447;DHT22;3765;47.962;7.952;2023-10-13T12:05:10;28.50;29.50
7447;DHT22;3765;47.962;7.952;2023-10-13T12:07:44;28.50;30.00
7447;DHT22;3765;47.962;7.952;2023-10-13T12:10:19;28.60;29.50
7447;DHT22;3765;47.962;7.952;2023-10-13T12:13:16;28.60;28.40
7447;DHT22;3765;47.962;7.952;2023-10-13T12:15:44;28.70;28.80
7447;DHT22;3765;47.962;7.952;2023-10-13T12:18:19;28.70;28.80
7447;DHT22;3765;47.962;7.952;2023-10-13T12:20:51;28.70;28.90
7447;DHT22;3765;47.962;7.952;2023-10-13T12:23:19;28.80;29.00
7447;DHT22;3765;47.962;7.952;2023-10-13T12:25:58;29.00;28.50
7447;DHT22;3765;47.962;7.952;2023-10-13T12:28:28;28.80;28.00
7447;DHT22;3765;47.962;7.952;2023-10-13T12:31:03;29.00;28.50
7447;DHT22;3765;47.962;7.952;2023-10-13T12:33:35;29.00;28.40
7447;DHT22;3765;47.962;7.952;2023-10-13T12:36:09;29.20;28.40
7447;DHT22;3765;47.962;7.952;2023-10-13T12:38:53;29.30;28.30
7447;DHT22;3765;47.962;7.952;2023-10-13T12:41:39;29.30;28.20
7447;DHT22;3765;47.962;7.952;2023-10-13T12:44:24;29.50;28.20
7447;DHT22;3765;47.962;7.952;2023-10-13T12:47:10;29.30;28.10
7447;DHT22;3765;47.962;7.952;2023-10-13T12:49:56;29.50;27.70
7447;DHT22;3765;47.962;7.952;2023-10-13T12:52:36;29.80;27.90
7447;DHT22;3765;47.962;7.952;2023-10-13T12:55:04;30.00;27.90
7447;DHT22;3765;47.962;7.952;2023-10-13T12:57:37;30.10;27.90
7447;DHT22;3765;47.962;7.952;2023-10-13T13:00:12;30.30;27.80
7447;DHT22;3765;47.962;7.952;2023-10-13T13:02:52;30.40;27.80
7447;DHT22;3765;47.962;7.952;2023-10-13T13:05:23;30.50;27.70
7447;DHT22;3765;47.962;7.952;2023-10-13T13:07:57;30.60;27.60
7447;DHT22;3765;47.962;7.952;2023-10-13T13:10:26;30.40;27.50
7447;DHT22;3765;47.962;7.952;2023-10-13T13:13:04;30.40;27.50
7447;DHT22;3765;47.962;7.952;2023-10-13T13:15:34;30.50;27.40
7447;DHT22;3765;47.962;7.952;2023-10-13T13:18:02;30.50;27.40
7447;DHT22;3765;47.962;7.952;2023-10-13T13:20:39;30.30;27.20
7447;DHT22;3765;47.962;7.952;2023-10-13T13:23:17;30.50;27.50
7447;DHT22;3765;47.962;7.952;2023-10-13T13:26:00;30.70;27.20
7447;DHT22;3765;47.962;7.952;2023-10-13T13:28:29;30.70;27.40
7447;DHT22;3765;47.962;7.952;2023-10-13T13:31:09;30.70;27.30
7447;DHT22;3765;47.962;7.952;2023-10-13T13:33:49;30.80;27.00
7447;DHT22;3765;47.962;7.952;2023-10-13T13:36:39;30.80;26.90
7447;DHT22;3765;47.962;7.952;2023-10-13T13:39:12;31.10;27.00
7447;DHT22;3765;47.962;7.952;2023-10-13T13:41:44;31.20;26.80
7447;DHT22;3765;47.962;7.952;2023-10-13T13:44:12;31.40;26.80
7447;DHT22;3765;47.962;7.952;2023-10-13T13:46:42;31.40;26.70
7447;DHT22;3765;47.962;7.952;2023-10-13T13:49:10;31.60;26.80
7447;DHT22;3765;47.962;7.952;2023-10-13T13:51:45;31.70;26.60
7447;DHT22;3765;47.962;7.952;2023-10-13T13:54:20;31.60;26.60
7447;DHT22;3765;47.962;7.952;2023-10-13T13:56:49;31.70;26.50
7447;DHT22;3765;47.962;7.952;2023-10-13T13:59:17;31.60;26.40
7447;DHT22;3765;47.962;7.952;2023-10-13T14:01:47;31.60;26.40
7447;DHT22;3765;47.962;7.952;2023-10-13T14:04:15;31.80;26.30
7447;DHT22;3765;47.962;7.952;2023-10-13T14:06:44;31.40;26.30
7447;DHT22;3765;47.962;7.952;2023-10-13T14:09:13;31.70;26.40
7447;DHT22;3765;47.962;7.952;2023-10-13T14:12:01;32.10;26.10
7447;DHT22;3765;47.962;7.952;2023-10-13T14:14:46;32.20;25.90
7447;DHT22;3765;47.962;7.952;2023-10-13T14:17:17;32.00;25.90
7447;DHT22;3765;47.962;7.952;2023-10-13T14:19:46;32.00;25.90
7447;DHT22;3765;47.962;7.952;2023-10-13T14:22:14;31.80;26.10
7447;DHT22;3765;47.962;7.952;2023-10-13T14:24:42;31.90;26.00
7447;DHT22;3765;47.962;7.952;2023-10-13T14:27:16;32.20;25.90
7447;DHT22;3765;47.962;7.952;2023-10-13T14:29:46;32.30;25.70
7447;DHT22;3765;47.962;7.952;2023-10-13T14:32:14;32.30;25.80
7447;DHT22;3765;47.962;7.952;2023-10-13T14:34:44;32.50;25.70
7447;DHT22;3765;47.962;7.952;2023-10-13T14:37:15;32.30;25.80
7447;DHT22;3765;47.962;7.952;2023-10-13T14:39:53;32.30;25.90
7447;DHT22;3765;47.962;7.952;2023-10-13T14:42:26;32.10;26.20
7447;DHT22;3765;47.962;7.952;2023-10-13T14:44:55;32.10;26.00
7447;DHT22;3765;47.962;7.952;2023-10-13T14:47:27;31.90;26.30
7447;DHT22;3765;47.962;7.952;2023-10-13T14:49:56;32.00;26.40
7447;DHT22;3765;47.962;7.952;2023-10-13T14:52:27;32.10;26.50
7447;DHT22;3765;47.962;7.952;2023-10-13T14:54:59;31.80;26.60
7447;DHT22;3765;47.962;7.952;2023-10-13T14:57:29;31.80;26.50
7447;DHT22;3765;47.962;7.952;2023-10-13T14:59:57;31.70;26.60
7447;DHT22;3765;47.962;7.952;2023-10-13T15:02:25;31.50;26.70
7447;DHT22;3765;47.962;7.952;2023-10-13T15:04:54;31.30;26.90
7447;DHT22;3765;47.962;7.952;2023-10-13T15:07:24;31.10;26.90
7447;DHT22;3765;47.962;7.952;2023-10-13T15:09:55;30.90;27.10
7447;DHT22;3765;47.962;7.952;2023-10-13T15:12:24;30.50;27.40
7447;DHT22;3765;47.962;7.952;2023-10-13T15:14:56;30.20;27.70
7447;DHT22;3765;47.962;7.952;2023-10-13T15:17:26;29.80;28.20
7447;DHT22;3765;47.962;7.952;2023-10-13T15:19:55;29.30;28.70
7447;DHT22;3765;47.962;7.952;2023-10-13T15:22:23;28.80;29.20
7447;DHT22;3765;47.962;7.952;2023-10-13T15:24:55;28.50;29.50
7447;DHT22;3765;47.962;7.952;2023-10-13T15:27:36;28.30;29.90
7447;DHT22;3765;47.962;7.952;2023-10-13T15:30:11;28.00;30.30
7447;DHT22;3765;47.962;7.952;2023-10-13T15:32:49;27.80;30.60
7447;DHT22;3765;47.962;7.952;2023-10-13T15:35:18;27.50;31.20
7447;DHT22;3765;47.962;7.952;2023-10-13T15:37:49;27.20;31.70
7447;DHT22;3765;47.962;7.952;2023-10-13T15:40:19;27.00;32.40
7447;DHT22;3765;47.962;7.952;2023-10-13T15:42:48;26.70;32.90
7447;DHT22;3765;47.962;7.952;2023-10-13T15:45:18;26.40;33.30
7447;DHT22;3765;47.962;7.952;2023-10-13T15:47:49;26.10;33.60
7447;DHT22;3765;47.962;7.952;2023-10-13T15:50:20;25.80;34.00
7447;DHT22;3765;47.962;7.952;2023-10-13T15:52:49;25.60;34.40
7447;DHT22;3765;47.962;7.952;2023-10-13T15:55:18;25.60;34.70
7447;DHT22;3765;47.962;7.952;2023-10-13T15:57:49;25.50;35.20
7447;DHT22;3765;47.962;7.952;2023-10-13T16:00:22;25.30;35.60
7447;DHT22;3765;47.962;7.952;2023-10-13T16:02:54;24.90;36.00
7447;DHT22;3765;47.962;7.952;2023-10-13T16:05:29;24.70;36.20
7447;DHT22;3765;47.962;7.952;2023-10-13T16:08:02;24.50;36.50
7447;DHT22;3765;47.962;7.952;2023-10-13T16:10:33;24.30;36.80
7447;DHT22;3765;47.962;7.952;2023-10-13T16:13:03;24.20;37.20
7447;DHT22;3765;47.962;7.952;2023-10-13T16:15:36;24.00;37.50
7447;DHT22;3765;47.962;7.952;2023-10-13T16:18:10;23.90;37.80
7447;DHT22;3765;47.962;7.952;2023-10-13T16:20:38;23.70;38.10
7447;DHT22;3765;47.962;7.952;2023-10-13T16:23:07;23.60;38.30
7447;DHT22;3765;47.962;7.952;2023-10-13T16:25:36;23.50;38.60
7447;DHT22;3765;47.962;7.952;2023-10-13T16:28:05;23.30;39.00
7447;DHT22;3765;47.962;7.952;2023-10-13T16:30:36;23.10;39.30
7447;DHT22;3765;47.962;7.952;2023-10-13T16:33:05;23.00;39.50
7447;DHT22;3765;47.962;7.952;2023-10-13T16:35:33;22.80;39.60
7447;DHT22;3765;47.962;7.952;2023-10-13T16:38:01;22.70;40.00
7447;DHT22;3765;47.962;7.952;2023-10-13T16:40:33;22.60;40.10
7447;DHT22;3765;47.962;7.952;2023-10-13T16:43:02;22.40;40.40
7447;DHT22;3765;47.962;7.952;2023-10-13T16:45:30;22.30;40.60
7447;DHT22;3765;47.962;7.952;2023-10-13T16:48:05;22.20;40.80
7447;DHT22;3765;47.962;7.952;2023-10-13T16:50:33;22.00;40.90
7447;DHT22;3765;47.962;7.952;2023-10-13T16:53:04;21.90;41.00
7447;DHT22;3765;47.962;7.952;2023-10-13T16:55:33;21.90;41.20
7447;DHT22;3765;47.962;7.952;2023-10-13T16:58:01;21.80;41.30
7447;DHT22;3765;47.962;7.952;2023-10-13T17:00:30;21.60;41.60
7447;DHT22;3765;47.962;7.952;2023-10-13T17:02:58;21.60;41.40
7447;DHT22;3765;47.962;7.952;2023-10-13T17:05:38;21.50;41.50